sensor_id;sensor_type;location;lat;lon;timestamp;pressure;altitude;pressure_sealevel;temperature;humidity
77079;BME280;66004;55.096;38.760;2023-12-29T00:01:31;99517.81;;;-0.97;59.14
77079;BME280;66004;55.096;38.760;2023-12-29T00:03:57;99524.69;;;-0.94;59.40
77079;BME280;66004;55.096;38.760;2023-12-29T00:06:22;99502.34;;;-0.93;59.33
77079;BME280;66004;55.096;38.760;2023-12-29T00:08:48;99465.91;;;-0.95;59.03
77079;BME280;66004;55.096;38.760;2023-12-29T00:11:18;99480.25;;;-0.93;59.17
77079;BME280;66004;55.096;38.760;2023-12-29T00:13:44;99476.09;;;-0.85;59.42
77079;BME280;66004;55.096;38.760;2023-12-29T00:16:09;99462.03;;;-0.94;59.41
77079;BME280;66004;55.096;38.760;2023-12-29T00:18:37;99481.88;;;-0.82;59.43
77079;BME280;66004;55.096;38.760;2023-12-29T00:21:03;99451.53;;;-0.92;59.29
77079;BME280;66004;55.096;38.760;2023-12-29T00:23:28;99450.16;;;-0.84;59.28
77079;BME280;66004;55.096;38.760;2023-12-29T00:25:54;99456.50;;;-0.73;59.18
77079;BME280;66004;55.096;38.760;2023-12-29T00:28:19;99452.59;;;-0.72;59.39
77079;BME280;66004;55.096;38.760;2023-12-29T00:30:45;99454.28;;;-0.71;59.32
77079;BME280;66004;55.096;38.760;2023-12-29T00:33:10;99453.16;;;-0.70;59.40
77079;BME280;66004;55.096;38.760;2023-12-29T00:35:39;99439.91;;;-0.73;59.27
77079;BME280;66004;55.096;38.760;2023-12-29T00:38:05;99447.63;;;-0.65;59.45
77079;BME280;66004;55.096;38.760;2023-12-29T00:40:32;99442.09;;;-0.65;59.33
77079;BME280;66004;55.096;38.760;2023-12-29T00:42:58;99439.88;;;-0.63;59.34
77079;BME280;66004;55.096;38.760;2023-12-29T00:45:23;99430.50;;;-0.62;59.28
77079;BME280;66004;55.096;38.760;2023-12-29T00:47:49;99427.72;;;-0.62;59.45
77079;BME280;66004;55.096;38.760;2023-12-29T00:50:16;99410.56;;;-0.64;59.44
77079;BME280;66004;55.096;38.760;2023-12-29T00:52:42;99420.25;;;-0.62;59.58
77079;BME280;66004;55.096;38.760;2023-12-29T00:55:07;99419.44;;;-0.62;59.55
77079;BME280;66004;55.096;38.760;2023-12-29T00:57:33;99416.09;;;-0.64;59.32
77079;BME280;66004;55.096;38.760;2023-12-29T00:59:59;99406.72;;;-0.63;59.21
77079;BME280;66004;55.096;38.760;2023-12-29T01:02:25;99414.47;;;-0.60;59.21
77079;BME280;66004;55.096;38.760;2023-12-29T01:04:51;99400.94;;;-0.67;59.18
77079;BME280;66004;55.096;38.760;2023-12-29T01:07:16;99408.38;;;-0.62;59.38
77079;BME280;66004;55.096;38.760;2023-12-29T01:09:42;99397.56;;;-0.59;59.60
77079;BME280;66004;55.096;38.760;2023-12-29T01:12:08;99399.53;;;-0.64;59.36
77079;BME280;66004;55.096;38.760;2023-12-29T01:14:33;99398.41;;;-0.58;59.13
77079;BME280;66004;55.096;38.760;2023-12-29T01:16:59;99389.00;;;-0.57;59.35
77079;BME280;66004;55.096;38.760;2023-12-29T01:19:24;99384.06;;;-0.60;59.42
77079;BME280;66004;55.096;38.760;2023-12-29T01:21:50;99386.28;;;-0.62;59.34
77079;BME280;66004;55.096;38.760;2023-12-29T01:24:15;99363.13;;;-0.71;59.41
77079;BME280;66004;55.096;38.760;2023-12-29T01:26:41;99371.91;;;-0.64;59.63
77079;BME280;66004;55.096;38.760;2023-12-29T01:29:07;99371.91;;;-0.64;59.66
77079;BME280;66004;55.096;38.760;2023-12-29T01:31:32;99362.50;;;-0.63;59.77
77079;BME280;66004;55.096;38.760;2023-12-29T01:33:58;99360.28;;;-0.61;59.51
77079;BME280;66004;55.096;38.760;2023-12-29T01:36:24;99348.72;;;-0.68;59.45
77079;BME280;66004;55.096;38.760;2023-12-29T01:38:49;99339.63;;;-0.74;59.46
77079;BME280;66004;55.096;38.760;2023-12-29T01:41:15;99360.84;;;-0.64;59.32
77079;BME280;66004;55.096;38.760;2023-12-29T01:46:21;99342.09;;;-0.67;59.35
77079;BME280;66004;55.096;38.760;2023-12-29T01:48:47;99321.97;;;-0.73;59.33
77079;BME280;66004;55.096;38.760;2023-12-29T01:51:14;99319.19;;;-0.73;59.26
77079;BME280;66004;55.096;38.760;2023-12-29T01:53:40;99312.84;;;-0.73;59.37
77079;BME280;66004;55.096;38.760;2023-12-29T01:56:07;99321.09;;;-0.68;59.33
77079;BME280;66004;55.096;38.760;2023-12-29T01:58:33;99310.91;;;-0.68;59.37
77079;BME280;66004;55.096;38.760;2023-12-29T02:01:00;99311.13;;;-0.64;59.52
77079;BME280;66004;55.096;38.760;2023-12-29T02:03:27;99306.72;;;-0.65;59.43
77079;BME280;66004;55.096;38.760;2023-12-29T02:05:55;99304.47;;;-0.58;59.46
77079;BME280;66004;55.096;38.760;2023-12-29T02:08:22;99298.97;;;-0.58;59.34
77079;BME280;66004;55.096;38.760;2023-12-29T02:10:48;99304.47;;;-0.58;59.37
77079;BME280;66004;55.096;38.760;2023-12-29T02:13:14;99307.50;;;-0.54;59.19
77079;BME280;66004;55.096;38.760;2023-12-29T02:15:40;99303.91;;;-0.55;59.34
77079;BME280;66004;55.096;38.760;2023-12-29T02:18:07;99273.03;;;-0.67;58.81
77079;BME280;66004;55.096;38.760;2023-12-29T02:20:35;99269.75;;;-0.69;59.14
77079;BME280;66004;55.096;38.760;2023-12-29T02:23:02;99274.63;;;-0.56;59.24
77079;BME280;66004;55.096;38.760;2023-12-29T02:25:28;99275.19;;;-0.59;59.17
77079;BME280;66004;55.096;38.760;2023-12-29T02:30:43;99266.06;;;-0.54;59.28
77079;BME280;66004;55.096;38.760;2023-12-29T02:33:14;99257.81;;;-0.60;59.08
77079;BME280;66004;55.096;38.760;2023-12-29T02:35:43;99265.22;;;-0.55;59.42
77079;BME280;66004;55.096;38.760;2023-12-29T02:38:09;99264.97;;;-0.59;59.10
77079;BME280;66004;55.096;38.760;2023-12-29T02:40:36;99263.59;;;-0.56;59.10
77079;BME280;66004;55.096;38.760;2023-12-29T02:43:02;99262.50;;;-0.60;59.06
77079;BME280;66004;55.096;38.760;2023-12-29T02:45:28;99250.88;;;-0.57;59.23
77079;BME280;66004;55.096;38.760;2023-12-29T02:47:54;99240.44;;;-0.65;59.09
77079;BME280;66004;55.096;38.760;2023-12-29T02:50:19;99243.44;;;-0.62;58.96
77079;BME280;66004;55.096;38.760;2023-12-29T02:52:45;99236.00;;;-0.66;59.20
77079;BME280;66004;55.096;38.760;2023-12-29T02:55:10;99244.25;;;-0.61;59.37
77079;BME280;66004;55.096;38.760;2023-12-29T02:57:37;99242.63;;;-0.62;59.26
77079;BME280;66004;55.096;38.760;2023-12-29T03:00:03;99218.34;;;-0.70;59.41
77079;BME280;66004;55.096;38.760;2023-12-29T03:02:29;99197.97;;;-0.80;59.21
77079;BME280;66004;55.096;38.760;2023-12-29T03:04:55;99179.72;;;-0.75;59.00
77079;BME280;66004;55.096;38.760;2023-12-29T03:07:20;99193.75;;;-0.67;59.11
77079;BME280;66004;55.096;38.760;2023-12-29T03:09:46;99163.13;;;-0.70;59.18
77079;BME280;66004;55.096;38.760;2023-12-29T03:12:11;99163.13;;;-0.70;59.13
77079;BME280;66004;55.096;38.760;2023-12-29T03:14:37;99175.81;;;-0.69;59.17
77079;BME280;66004;55.096;38.760;2023-12-29T03:17:02;99171.38;;;-0.65;58.91
77079;BME280;66004;55.096;38.760;2023-12-29T03:19:28;99174.66;;;-0.63;58.82
77079;BME280;66004;55.096;38.760;2023-12-29T03:21:53;99161.94;;;-0.64;59.12
77079;BME280;66004;55.096;38.760;2023-12-29T03:24:19;99167.47;;;-0.64;59.29
77079;BME280;66004;55.096;38.760;2023-12-29T03:26:45;99161.94;;;-0.59;59.22
77079;BME280;66004;55.096;38.760;2023-12-29T03:29:11;99144.31;;;-0.68;59.16
77079;BME280;66004;55.096;38.760;2023-12-29T03:31:36;99153.38;;;-0.63;58.85
77079;BME280;66004;55.096;38.760;2023-12-29T03:34:02;99165.28;;;-0.62;59.31
77079;BME280;66004;55.096;38.760;2023-12-29T03:36:28;99157.53;;;-0.60;59.07
77079;BME280;66004;55.096;38.760;2023-12-29T03:38:53;99155.31;;;-0.58;58.88
77079;BME280;66004;55.096;38.760;2023-12-29T03:41:19;99153.63;;;-0.59;59.19
77079;BME280;66004;55.096;38.760;2023-12-29T03:43:44;99158.59;;;-0.56;59.25
77079;BME280;66004;55.096;38.760;2023-12-29T03:46:20;99141.78;;;-0.60;59.08
77079;BME280;66004;55.096;38.760;2023-12-29T03:48:47;99143.66;;;-0.55;58.89
77079;BME280;66004;55.096;38.760;2023-12-29T03:51:13;99128.25;;;-0.61;59.01
77079;BME280;66004;55.096;38.760;2023-12-29T03:53:38;99120.22;;;-0.63;59.30
77079;BME280;66004;55.096;38.760;2023-12-29T03:56:22;99105.63;;;-0.68;59.20
77079;BME280;66004;55.096;38.760;2023-12-29T03:58:48;99085.59;;;-0.79;59.02
77079;BME280;66004;55.096;38.760;2023-12-29T04:01:15;99112.00;;;-0.68;59.29
77079;BME280;66004;55.096;38.760;2023-12-29T04:03:41;99101.53;;;-0.71;59.14
77079;BME280;66004;55.096;38.760;2023-12-29T04:06:07;99108.38;;;-0.63;59.13
77079;BME280;66004;55.096;38.760;2023-12-29T04:08:36;99111.16;;;-0.68;59.00
77079;BME280;66004;55.096;38.760;2023-12-29T04:11:02;99083.94;;;-0.80;59.00
77079;BME280;66004;55.096;38.760;2023-12-29T04:13:28;99101.44;;;-0.61;58.88
77079;BME280;66004;55.096;38.760;2023-12-29T04:15:54;99090.19;;;-0.69;58.88
77079;BME280;66004;55.096;38.760;2023-12-29T04:18:21;99092.38;;;-0.66;59.02
77079;BME280;66004;55.096;38.760;2023-12-29T04:20:47;99085.81;;;-0.75;58.99
77079;BME280;66004;55.096;38.760;2023-12-29T04:23:13;99041.34;;;-1.08;59.07
77079;BME280;66004;55.096;38.760;2023-12-29T04:25:39;99087.19;;;-0.73;59.16
77079;BME280;66004;55.096;38.760;2023-12-29T04:28:04;99093.22;;;-0.66;59.12
77079;BME280;66004;55.096;38.760;2023-12-29T04:30:30;99087.94;;;-0.62;59.01
77079;BME280;66004;55.096;38.760;2023-12-29T04:32:55;99079.66;;;-0.62;58.90
77079;BME280;66004;55.096;38.760;2023-12-29T04:35:21;99047.22;;;-0.81;58.88
77079;BME280;66004;55.096;38.760;2023-12-29T04:37:47;99076.28;;;-0.59;59.12
77079;BME280;66004;55.096;38.760;2023-12-29T04:40:12;99061.94;;;-0.61;58.98
77079;BME280;66004;55.096;38.760;2023-12-29T04:42:39;99062.44;;;-0.54;59.16
77079;BME280;66004;55.096;38.760;2023-12-29T04:45:05;99063.25;;;-0.53;59.16
77079;BME280;66004;55.096;38.760;2023-12-29T04:47:31;99065.16;;;-0.49;59.30
77079;BME280;66004;55.096;38.760;2023-12-29T04:49:56;99064.56;;;-0.46;59.29
77079;BME280;66004;55.096;38.760;2023-12-29T04:52:22;99042.03;;;-0.58;59.17
77079;BME280;66004;55.096;38.760;2023-12-29T04:54:48;99047.97;;;-0.46;59.16
77079;BME280;66004;55.096;38.760;2023-12-29T04:57:13;99042.44;;;-0.46;59.28
77079;BME280;66004;55.096;38.760;2023-12-29T04:59:39;99033.63;;;-0.48;59.24
77079;BME280;66004;55.096;38.760;2023-12-29T05:02:04;99022.09;;;-0.55;59.49
77079;BME280;66004;55.096;38.760;2023-12-29T05:04:30;99046.91;;;-0.50;59.62
77079;BME280;66004;55.096;38.760;2023-12-29T05:06:55;99041.38;;;-0.50;59.35
77079;BME280;66004;55.096;38.760;2023-12-29T05:09:21;99032.56;;;-0.52;59.81
77079;BME280;66004;55.096;38.760;2023-12-29T05:11:47;99026.22;;;-0.52;59.62
77079;BME280;66004;55.096;38.760;2023-12-29T05:14:13;99031.47;;;-0.51;59.68
77079;BME280;66004;55.096;38.760;2023-12-29T05:16:38;99035.81;;;-0.45;59.95
77079;BME280;66004;55.096;38.760;2023-12-29T05:19:04;99024.00;;;-0.50;59.91
77079;BME280;66004;55.096;38.760;2023-12-29T05:21:29;99029.75;;;-0.47;60.00
77079;BME280;66004;55.096;38.760;2023-12-29T05:23:56;99022.88;;;-0.49;60.16
77079;BME280;66004;55.096;38.760;2023-12-29T05:26:21;99012.13;;;-0.51;60.10
77079;BME280;66004;55.096;38.760;2023-12-29T05:28:47;98986.25;;;-0.60;60.32
77079;BME280;66004;55.096;38.760;2023-12-29T05:31:13;98962.38;;;-0.75;60.54
77079;BME280;66004;55.096;38.760;2023-12-29T05:33:38;98976.84;;;-0.59;60.29
77079;BME280;66004;55.096;38.760;2023-12-29T05:36:08;98949.91;;;-0.72;60.39
77079;BME280;66004;55.096;38.760;2023-12-29T05:38:34;98982.34;;;-0.59;60.64
77079;BME280;66004;55.096;38.760;2023-12-29T05:41:01;98957.09;;;-0.71;61.13
77079;BME280;66004;55.096;38.760;2023-12-29T05:43:28;98967.78;;;-0.65;61.12
77079;BME280;66004;55.096;38.760;2023-12-29T05:45:53;98963.06;;;-0.64;61.00
77079;BME280;66004;55.096;38.760;2023-12-29T05:48:19;98920.19;;;-0.81;61.20
77079;BME280;66004;55.096;38.760;2023-12-29T05:50:44;98935.25;;;-0.68;61.08
77079;BME280;66004;55.096;38.760;2023-12-29T05:53:10;98939.56;;;-0.62;61.06
77079;BME280;66004;55.096;38.760;2023-12-29T05:55:35;98948.63;;;-0.56;61.07
77079;BME280;66004;55.096;38.760;2023-12-29T05:58:01;98928.88;;;-0.68;61.18
77079;BME280;66004;55.096;38.760;2023-12-29T06:00:27;98941.97;;;-0.55;61.17
77079;BME280;66004;55.096;38.760;2023-12-29T06:02:52;98929.34;;;-0.61;61.06
77079;BME280;66004;55.096;38.760;2023-12-29T06:05:18;98917.81;;;-0.68;61.38
77079;BME280;66004;55.096;38.760;2023-12-29T06:07:43;98938.41;;;-0.55;61.60
77079;BME280;66004;55.096;38.760;2023-12-29T06:10:09;98922.72;;;-0.60;61.47
77079;BME280;66004;55.096;38.760;2023-12-29T06:12:35;98912.19;;;-0.58;61.53
77079;BME280;66004;55.096;38.760;2023-12-29T06:15:01;98905.47;;;-0.52;61.21
77079;BME280;66004;55.096;38.760;2023-12-29T06:17:27;98924.41;;;-0.40;61.50
77079;BME280;66004;55.096;38.760;2023-12-29T06:19:52;98924.41;;;-0.40;61.43
77079;BME280;66004;55.096;38.760;2023-12-29T06:22:18;98914.19;;;-0.40;61.61
77079;BME280;66004;55.096;38.760;2023-12-29T06:24:44;98919.91;;;-0.36;61.53
77079;BME280;66004;55.096;38.760;2023-12-29T06:27:12;98916.19;;;-0.45;61.60
77079;BME280;66004;55.096;38.760;2023-12-29T06:29:37;98925.25;;;-0.40;61.70
77079;BME280;66004;55.096;38.760;2023-12-29T06:32:04;98910.88;;;-0.42;61.81
77079;BME280;66004;55.096;38.760;2023-12-29T06:34:29;98909.63;;;-0.30;62.10
77079;BME280;66004;55.096;38.760;2023-12-29T06:36:55;98908.03;;;-0.36;61.61
77079;BME280;66004;55.096;38.760;2023-12-29T06:39:20;98912.38;;;-0.30;62.02
77079;BME280;66004;55.096;38.760;2023-12-29T06:41:46;98919.00;;;-0.26;61.57
77079;BME280;66004;55.096;38.760;2023-12-29T06:44:11;98906.94;;;-0.35;61.53
77079;BME280;66004;55.096;38.760;2023-12-29T06:46:38;98920.63;;;-0.25;61.68
77079;BME280;66004;55.096;38.760;2023-12-29T06:49:04;98913.91;;;-0.19;61.84
77079;BME280;66004;55.096;38.760;2023-12-29T06:51:29;98916.13;;;-0.21;61.68
77079;BME280;66004;55.096;38.760;2023-12-29T06:53:55;98925.28;;;-0.21;61.64
77079;BME280;66004;55.096;38.760;2023-12-29T06:56:20;98929.91;;;-0.16;61.98
77079;BME280;66004;55.096;38.760;2023-12-29T06:58:46;98920.94;;;-0.08;61.89
77079;BME280;66004;55.096;38.760;2023-12-29T07:01:12;98920.94;;;-0.08;61.79
77079;BME280;66004;55.096;38.760;2023-12-29T07:03:38;98910.94;;;-0.04;62.00
77079;BME280;66004;55.096;38.760;2023-12-29T07:06:04;98893.50;;;-0.04;61.94
77079;BME280;66004;55.096;38.760;2023-12-29T07:08:30;98906.31;;;0.11;61.66
77079;BME280;66004;55.096;38.760;2023-12-29T07:10:56;98917.28;;;0.16;61.61
77079;BME280;66004;55.096;38.760;2023-12-29T07:13:21;98911.25;;;0.14;61.46
77079;BME280;66004;55.096;38.760;2023-12-29T07:15:47;98912.81;;;0.20;61.40
77079;BME280;66004;55.096;38.760;2023-12-29T07:18:14;98897.94;;;0.16;61.50
77079;BME280;66004;55.096;38.760;2023-12-29T07:20:39;98907.66;;;0.32;61.73
77079;BME280;66004;55.096;38.760;2023-12-29T07:23:05;98903.16;;;0.36;61.30
77079;BME280;66004;55.096;38.760;2023-12-29T07:25:30;98907.25;;;0.39;61.42
77079;BME280;66004;55.096;38.760;2023-12-29T07:27:56;98893.31;;;0.30;61.28
77079;BME280;66004;55.096;38.760;2023-12-29T07:30:22;98889.84;;;0.38;61.71
77079;BME280;66004;55.096;38.760;2023-12-29T07:32:47;98899.63;;;0.50;61.43
77079;BME280;66004;55.096;38.760;2023-12-29T07:35:13;98894.81;;;0.55;61.33
77079;BME280;66004;55.096;38.760;2023-12-29T07:37:45;98901.09;;;0.61;61.70
77079;BME280;66004;55.096;38.760;2023-12-29T07:40:11;98892.59;;;0.71;61.68
77079;BME280;66004;55.096;38.760;2023-12-29T07:42:39;98893.03;;;0.78;61.44
77079;BME280;66004;55.096;38.760;2023-12-29T07:45:05;98895.44;;;0.85;61.56
77079;BME280;66004;55.096;38.760;2023-12-29T07:47:31;98895.13;;;0.87;61.45
77079;BME280;66004;55.096;38.760;2023-12-29T07:49:57;98887.34;;;0.89;61.47
77079;BME280;66004;55.096;38.760;2023-12-29T07:52:23;98892.69;;;0.99;61.68
77079;BME280;66004;55.096;38.760;2023-12-29T07:54:48;98869.59;;;0.90;61.57
77079;BME280;66004;55.096;38.760;2023-12-29T07:57:14;98897.84;;;1.20;61.44
77079;BME280;66004;55.096;38.760;2023-12-29T07:59:40;98876.09;;;1.27;61.14
77079;BME280;66004;55.096;38.760;2023-12-29T08:02:06;98887.81;;;1.38;61.05
77079;BME280;66004;55.096;38.760;2023-12-29T08:04:32;98866.44;;;1.24;61.15
77079;BME280;66004;55.096;38.760;2023-12-29T08:06:57;98877.72;;;1.28;60.81
77079;BME280;66004;55.096;38.760;2023-12-29T08:09:23;98885.75;;;1.29;61.42
77079;BME280;66004;55.096;38.760;2023-12-29T08:11:49;98881.63;;;1.27;61.23
77079;BME280;66004;55.096;38.760;2023-12-29T08:14:15;98892.94;;;1.30;61.22
77079;BME280;66004;55.096;38.760;2023-12-29T08:16:41;98888.81;;;1.28;61.19
77079;BME280;66004;55.096;38.760;2023-12-29T08:19:07;98879.78;;;1.22;61.59
77079;BME280;66004;55.096;38.760;2023-12-29T08:21:33;98859.28;;;1.09;61.42
77079;BME280;66004;55.096;38.760;2023-12-29T08:23:59;98870.75;;;1.16;61.26
77079;BME280;66004;55.096;38.760;2023-12-29T08:26:24;98841.41;;;1.15;61.17
77079;BME280;66004;55.096;38.760;2023-12-29T08:28:51;98857.13;;;1.34;61.36
77079;BME280;66004;55.096;38.760;2023-12-29T08:31:18;98856.78;;;1.35;61.20
77079;BME280;66004;55.096;38.760;2023-12-29T08:33:44;98849.81;;;1.38;61.21
77079;BME280;66004;55.096;38.760;2023-12-29T08:36:11;98846.97;;;1.43;61.25
77079;BME280;66004;55.096;38.760;2023-12-29T08:38:37;98828.06;;;1.45;61.04
77079;BME280;66004;55.096;38.760;2023-12-29T08:41:02;98825.81;;;1.47;60.79
77079;BME280;66004;55.096;38.760;2023-12-29T08:43:28;98836.44;;;1.68;60.93
77079;BME280;66004;55.096;38.760;2023-12-29T08:45:53;98827.50;;;1.71;60.85
77079;BME280;66004;55.096;38.760;2023-12-29T08:48:19;98822.44;;;1.73;60.79
77079;BME280;66004;55.096;38.760;2023-12-29T08:50:45;98816.81;;;1.78;60.83
77079;BME280;66004;55.096;38.760;2023-12-29T08:53:10;98822.25;;;1.83;60.80
77079;BME280;66004;55.096;38.760;2023-12-29T08:55:36;98804.06;;;1.77;60.87
77079;BME280;66004;55.096;38.760;2023-12-29T08:58:02;98819.31;;;1.88;60.46
77079;BME280;66004;55.096;38.760;2023-12-29T09:00:27;98821.50;;;1.91;60.70
77079;BME280;66004;55.096;38.760;2023-12-29T09:02:56;98816.94;;;1.95;60.71
77079;BME280;66004;55.096;38.760;2023-12-29T09:05:21;98805.34;;;1.93;60.47
77079;BME280;66004;55.096;38.760;2023-12-29T09:07:47;98790.59;;;1.84;60.42
77079;BME280;66004;55.096;38.760;2023-12-29T09:10:12;98789.53;;;1.94;60.62
77079;BME280;66004;55.096;38.760;2023-12-29T09:12:39;98778.44;;;1.94;60.52
77079;BME280;66004;55.096;38.760;2023-12-29T09:15:05;98793.63;;;1.97;60.64
77079;BME280;66004;55.096;38.760;2023-12-29T09:17:31;98795.47;;;2.01;60.46
77079;BME280;66004;55.096;38.760;2023-12-29T09:19:57;98804.78;;;2.05;60.45
77079;BME280;66004;55.096;38.760;2023-12-29T09:22:22;98805.13;;;2.04;60.58
77079;BME280;66004;55.096;38.760;2023-12-29T09:24:48;98807.91;;;2.04;60.59
77079;BME280;66004;55.096;38.760;2023-12-29T09:27:13;98804.97;;;2.09;60.50
77079;BME280;66004;55.096;38.760;2023-12-29T09:29:39;98799.31;;;2.14;60.33
77079;BME280;66004;55.096;38.760;2023-12-29T09:32:05;98779.28;;;2.17;60.62
77079;BME280;66004;55.096;38.760;2023-12-29T09:34:31;98784.06;;;2.25;60.12
77079;BME280;66004;55.096;38.760;2023-12-29T09:36:57;98786.44;;;2.41;60.23
77079;BME280;66004;55.096;38.760;2023-12-29T09:39:22;98772.44;;;2.46;60.32
77079;BME280;66004;55.096;38.760;2023-12-29T09:41:51;98773.44;;;2.50;60.10
77079;BME280;66004;55.096;38.760;2023-12-29T09:44:20;98751.88;;;2.47;59.83
77079;BME280;66004;55.096;38.760;2023-12-29T09:46:49;98761.41;;;2.63;59.96
77079;BME280;66004;55.096;38.760;2023-12-29T09:49:18;98766.97;;;2.63;60.07
77079;BME280;66004;55.096;38.760;2023-12-29T09:51:44;98771.28;;;2.69;60.29
77079;BME280;66004;55.096;38.760;2023-12-29T09:54:10;98771.91;;;2.66;59.99
77079;BME280;66004;55.096;38.760;2023-12-29T09:56:37;98771.53;;;2.59;60.41
77079;BME280;66004;55.096;38.760;2023-12-29T09:59:03;98770.91;;;2.62;60.28
77079;BME280;66004;55.096;38.760;2023-12-29T10:01:29;98763.69;;;2.61;60.42
77079;BME280;66004;55.096;38.760;2023-12-29T10:03:56;98741.13;;;2.54;60.49
77079;BME280;66004;55.096;38.760;2023-12-29T10:06:26;98747.53;;;2.63;60.30
77079;BME280;66004;55.096;38.760;2023-12-29T10:08:52;98758.50;;;2.68;60.29
77079;BME280;66004;55.096;38.760;2023-12-29T10:11:21;98758.50;;;2.68;60.42
77079;BME280;66004;55.096;38.760;2023-12-29T10:13:49;98744.75;;;2.63;60.54
77079;BME280;66004;55.096;38.760;2023-12-29T10:16:35;98738.94;;;2.73;60.31
77079;BME280;66004;55.096;38.760;2023-12-29T10:19:14;98739.06;;;2.68;60.38
77079;BME280;66004;55.096;38.760;2023-12-29T10:21:52;98740.19;;;2.67;60.61
77079;BME280;66004;55.096;38.760;2023-12-29T10:24:21;98737.28;;;2.72;60.59
77079;BME280;66004;55.096;38.760;2023-12-29T10:26:47;98735.84;;;2.75;60.56
77079;BME280;66004;55.096;38.760;2023-12-29T10:29:13;98718.34;;;2.75;60.75
77079;BME280;66004;55.096;38.760;2023-12-29T10:31:39;98715.88;;;2.73;60.96
77079;BME280;66004;55.096;38.760;2023-12-29T10:34:20;98735.69;;;2.80;60.72
77079;BME280;66004;55.096;38.760;2023-12-29T10:36:53;98729.31;;;2.80;60.87
77079;BME280;66004;55.096;38.760;2023-12-29T10:39:19;98719.00;;;2.80;60.79
77079;BME280;66004;55.096;38.760;2023-12-29T10:41:45;98715.06;;;2.72;61.00
77079;BME280;66004;55.096;38.760;2023-12-29T10:44:10;98724.72;;;2.75;61.42
77079;BME280;66004;55.096;38.760;2023-12-29T10:46:36;98735.53;;;2.85;61.14
77079;BME280;66004;55.096;38.760;2023-12-29T10:49:08;98730.16;;;2.89;61.15
77079;BME280;66004;55.096;38.760;2023-12-29T10:51:35;98715.44;;;2.80;61.20
77079;BME280;66004;55.096;38.760;2023-12-29T10:54:00;98735.72;;;2.89;61.35
77079;BME280;66004;55.096;38.760;2023-12-29T10:56:26;98731.78;;;2.90;61.25
77079;BME280;66004;55.096;38.760;2023-12-29T10:59:18;98722.97;;;2.88;61.55
77079;BME280;66004;55.096;38.760;2023-12-29T11:01:44;98726.53;;;2.80;61.55
77079;BME280;66004;55.096;38.760;2023-12-29T11:04:13;98712.28;;;2.72;61.82
77079;BME280;66004;55.096;38.760;2023-12-29T11:06:43;98726.66;;;2.75;61.68
77079;BME280;66004;55.096;38.760;2023-12-29T11:09:12;98715.19;;;2.67;61.69
77079;BME280;66004;55.096;38.760;2023-12-29T11:11:38;98731.09;;;2.76;62.05
77079;BME280;66004;55.096;38.760;2023-12-29T11:14:04;98733.22;;;2.79;62.01
77079;BME280;66004;55.096;38.760;2023-12-29T11:16:31;98735.50;;;2.77;62.30
77079;BME280;66004;55.096;38.760;2023-12-29T11:19:01;98734.50;;;2.72;62.43
77079;BME280;66004;55.096;38.760;2023-12-29T11:21:30;98734.81;;;2.71;62.38
77079;BME280;66004;55.096;38.760;2023-12-29T11:23:55;98728.47;;;2.70;62.69
77079;BME280;66004;55.096;38.760;2023-12-29T11:26:21;98728.47;;;2.70;62.79
77079;BME280;66004;55.096;38.760;2023-12-29T11:28:48;98721.78;;;2.71;62.89
77079;BME280;66004;55.096;38.760;2023-12-29T11:31:17;98726.66;;;2.75;62.73
77079;BME280;66004;55.096;38.760;2023-12-29T11:33:46;98727.34;;;2.80;62.72
77079;BME280;66004;55.096;38.760;2023-12-29T11:36:19;98728.19;;;2.81;62.78
77079;BME280;66004;55.096;38.760;2023-12-29T11:43:57;98716.41;;;2.84;62.73
77079;BME280;66004;55.096;38.760;2023-12-29T11:46:36;98709.06;;;2.88;62.88
77079;BME280;66004;55.096;38.760;2023-12-29T11:49:02;98704.31;;;2.80;62.92
77079;BME280;66004;55.096;38.760;2023-12-29T11:51:49;98704.31;;;2.80;63.08
77079;BME280;66004;55.096;38.760;2023-12-29T11:54:23;98711.84;;;2.88;63.21
77079;BME280;66004;55.096;38.760;2023-12-29T11:56:49;98704.19;;;2.85;63.51
77079;BME280;66004;55.096;38.760;2023-12-29T11:59:19;98695.84;;;2.85;63.42
77079;BME280;66004;55.096;38.760;2023-12-29T12:01:55;98711.22;;;2.91;63.46
77079;BME280;66004;55.096;38.760;2023-12-29T12:04:40;98690.75;;;2.78;63.57
77079;BME280;66004;55.096;38.760;2023-12-29T12:10:28;98703.31;;;2.76;63.91
77079;BME280;66004;55.096;38.760;2023-12-29T12:12:58;98716.41;;;2.84;64.01
77079;BME280;66004;55.096;38.760;2023-12-29T12:17:56;98722.81;;;2.93;63.79
77079;BME280;66004;55.096;38.760;2023-12-29T12:20:22;98703.69;;;2.83;63.97
77079;BME280;66004;55.096;38.760;2023-12-29T12:23:11;98720.03;;;2.93;63.97
77079;BME280;66004;55.096;38.760;2023-12-29T12:25:39;98721.03;;;2.97;64.42
77079;BME280;66004;55.096;38.760;2023-12-29T12:28:09;98712.88;;;2.92;64.40
77079;BME280;66004;55.096;38.760;2023-12-29T12:30:35;98707.75;;;2.85;64.71
77079;BME280;66004;55.096;38.760;2023-12-29T12:33:02;98725.47;;;2.98;64.61
77079;BME280;66004;55.096;38.760;2023-12-29T12:35:29;98724.78;;;3.01;64.86
77079;BME280;66004;55.096;38.760;2023-12-29T12:38:10;98718.91;;;3.03;65.18
77079;BME280;66004;55.096;38.760;2023-12-29T12:40:36;98722.03;;;3.01;65.15
77079;BME280;66004;55.096;38.760;2023-12-29T12:43:03;98708.94;;;2.93;65.54
77079;BME280;66004;55.096;38.760;2023-12-29T12:45:34;98715.13;;;2.90;65.57
77079;BME280;66004;55.096;38.760;2023-12-29T12:48:32;98710.59;;;2.94;65.91
77079;BME280;66004;55.096;38.760;2023-12-29T12:50:55;98738.22;;;3.08;66.17
77079;BME280;66004;55.096;38.760;2023-12-29T12:53:23;98743.97;;;3.11;66.01
77079;BME280;66004;55.096;38.760;2023-12-29T12:55:49;98738.91;;;3.14;66.04
77079;BME280;66004;55.096;38.760;2023-12-29T12:58:19;98752.16;;;3.17;66.37
77079;BME280;66004;55.096;38.760;2023-12-29T13:00:46;98740.38;;;3.20;66.36
77079;BME280;66004;55.096;38.760;2023-12-29T13:03:12;98753.31;;;3.24;66.39
77079;BME280;66004;55.096;38.760;2023-12-29T13:05:38;98727.47;;;3.15;66.46
77079;BME280;66004;55.096;38.760;2023-12-29T13:08:04;98730.38;;;3.10;67.22
77079;BME280;66004;55.096;38.760;2023-12-29T13:10:31;98748.22;;;3.18;67.11